Boise, ID (83703)

5:34 AM MDT en Septiembre 17, 2014 (GMT -0600)
Sunset | Change Station
CLOSE
Current Station
Estación meteorológica personal
Location: Boise, ID
Altura: 2677 ft
Estaciones meteorológicas cercanas

Alt 2677 ft 43.65 °N, 116.23 °W | Updated 1 minute ago

Muy nublado
Muy nublado
58.5 ° F
Sensación térmica 58.5 ° F
N
0.0
Viento Variable Viento desde Sur

Hoy
Alta -- | Baja -- ° F
--% Posibilidad de precipitaciones
Ayer
Alta -- | Baja -- ° F
Precip. -- pul
7:26 AM 7:51 PM
Cuarto menguante, 37% visible
Presión 29.72 pul
Visibilidad 10.0 Millas
Nubes Despejado
Punto de rocío 54 ° F
Humedad 85%
Precipitaciones 0.00 pul
Espesor de la nieve 0 in , 0 in , 0 in
UV 0 de una escala de 12
Polen 8.00 de una escala de 12
Ozono Buena
PM2.5 Moderada
Flu Activity No disponible.
METAR KBOI 171053Z 14010KT 10SM CLR 22/06 A2982 RMK AO2 SLP063 T02220056

More Conditions Fewer Conditions

Presión 29.72 pul
Visibilidad 10.0 Millas
Nubes Despejado
Punto de rocío 54 ° F
Humedad 85%
Precipitaciones 0.00 pul
Espesor de la nieve 0 in , 0 in , 0 in
UV 0 de una escala de 12
Polen 8.00 de una escala de 12
Ozono Buena
PM2.5 Moderada
Flu Activity No disponible.
METAR KBOI 171053Z 14010KT 10SM CLR 22/06 A2982 RMK AO2 SLP063 T02220056

More Conditions Fewer Conditions

10-Day Weather Forecast

Almanac

Astronomía

Sep. 17, 2014 Salida Puesta
Hora real 7:26 AM MDT 7:51 PM MDT
Crepúsculo civil 6:57 AM MDT 8:20 PM MDT
Crepúsculo náutico 6:23 AM MDT 8:53 PM MDT
Crepúsculo astronómico 5:49 AM MDT 9:28 PM MDT
Luna 1:22 AM MDT 4:11 PM MDT
Horas de luz 13h 22m
Horas de luz
12h 24m
Tomorrow will be 2m 58s shorter.
Cuarto menguante, 37% of the Moon is Illuminated
Hoy
Cuarto menguante
Sep 24
Nueva
Oct 1
Cuarto creciente
Oct 8
Luna llena
Oct 15
Cuarto menguante

Extremos de hoy

Máximos del estado Bajos del estado

Community

WunderPhotos

Upload Photos

1,754,003 ¡fotos cargadas!

Nearby

Calidad del aire

  Calidad del aire Índice AQ Contaminante
Ayer Buena
PM10
Ayer Buena
OZONE
Real Moderada
PM2.5
Real Buena
OZONE
Martes Moderada
PM2.5
Martes Buena
OZONE
Miércoles Moderada
PM2.5
Miércoles Buena
OZONE
Jueves Moderada
PM2.5
Jueves Buena
OZONE

Grosos de nieve

Estación Profundido Altura
Sunset 0 in 5540 ft
Hidden Lake 0 in 5040 ft
Deadwood Summit 0 in 6860 ft
Long Valley 0 in 4890 ft
Mill Creek Summit 1 in 8800 ft

Actividad de terremotos

Ciudad Distance Mag. Tiempo y dato
No hay informes recientes de la actividad sísmica.
Magnitud mínima muestra es 2,5.

Temperaturas de aguas costeras

Lugar Temperatura
Sin partes meteorológicos de las estaciones

Estaciones meteorológicas cercanas